Time;durP1;ratioP1;P1;durP2;ratioP2;P2;SDS_P1;SDS_P2;PMS_P1;PMS_P2;Temp;Humidity;BMP_temperature;BMP_pressure;BME280_temperature;BME280_humidity;BME280_pressure;Samples;Min_cycle;Max_cycle;Signal;HPM_P1;HPM_P2
2021/03/25 00:01:54;;;;;;;;;;;;;;;16.20;65.50;101201.47;5005762;28;1494;-58
2021/03/25 00:04:19;;;;;;;;;;;;;;;16.21;64.17;101203.16;5002328;28;1552;-59
2021/03/25 00:06:47;;;;;;;;;;;;;;;16.20;65.71;101206.78;5000825;28;1442;-58
2021/03/25 00:09:19;;;;;;;;;;;;;;;16.17;64.80;101215.84;5004834;28;1902;-63
2021/03/25 00:11:45;;;;;;;;;;;;;;;16.16;65.43;101206.16;5009936;28;1680;-58
2021/03/25 00:14:10;;;;;;;;;;;;;;;16.16;64.39;101202.63;5010292;28;1600;-63
2021/03/25 00:16:35;;;;;;;;;;;;;;;16.13;64.89;101198.34;5008085;28;1588;-64
2021/03/25 00:19:01;;;;;;;;;;;;;;;16.17;65.71;101197.16;5006216;28;1402;-58
2021/03/25 00:21:27;;;;;;;;;;;;;;;16.13;64.51;101190.34;5008463;28;1628;-58
2021/03/25 00:23:52;;;;;;;;;;;;;;;16.12;64.45;101190.47;5010917;28;1359;-63
2021/03/25 00:26:18;;;;;;;;;;;;;;;16.15;65.10;101201.75;5013150;28;1327;-63
2021/03/25 00:28:43;;;;;;;;;;;;;;;16.15;64.24;101191.09;5009440;28;1620;-58
2021/03/25 00:31:08;;;;;;;;;;;;;;;16.13;64.32;101193.00;5010946;28;1974;-63
2021/03/25 00:33:34;;;;;;;;;;;;;;;16.16;64.87;101195.47;5010664;28;1314;-63
2021/03/25 00:35:59;;;;;;;;;;;;;;;16.15;65.18;101188.41;5005502;28;1371;-63
2021/03/25 00:38:25;;;;;;;;;;;;;;;16.11;64.50;101176.25;5004131;28;1331;-64
2021/03/25 00:40:50;;;;;;;;;;;;;;;16.13;64.04;101187.66;5008982;28;1362;-63
2021/03/25 00:43:18;;;;;;;;;;;;;;;16.13;64.48;101185.00;5010801;28;1481;-63
2021/03/25 00:45:45;;;;;;;;;;;;;;;16.14;64.28;101180.53;5006127;28;1596;-63
2021/03/25 00:48:11;;;;;;;;;;;;;;;16.10;64.81;101180.75;5007787;28;1406;-63
2021/03/25 00:50:41;;;;;;;;;;;;;;;16.08;65.04;101184.47;5007596;28;1958;-63
2021/03/25 00:53:07;;;;;;;;;;;;;;;16.06;64.97;101179.25;5011078;28;1623;-64
2021/03/25 00:55:33;;;;;;;;;;;;;;;16.08;65.56;101181.81;5007077;28;1708;-63
2021/03/25 00:57:58;;;;;;;;;;;;;;;16.07;65.66;101188.09;5011905;28;1524;-58
2021/03/25 01:00:28;;;;;;;;;;;;;;;16.03;65.16;101191.94;5007858;28;1336;-58
2021/03/25 01:02:54;;;;;;;;;;;;;;;16.07;65.25;101185.44;5009194;28;1387;-60
2021/03/25 01:05:20;;;;;;;;;;;;;;;16.06;65.61;101189.06;5008333;28;1291;-63
2021/03/25 01:07:45;;;;;;;;;;;;;;;16.00;65.41;101182.34;5006460;28;1488;-58
2021/03/25 01:10:13;;;;;;;;;;;;;;;16.01;64.75;101180.53;5006526;28;1894;-63
2021/03/25 01:12:38;;;;;;;;;;;;;;;15.67;64.31;101134.81;5011994;28;1552;-58
2021/03/25 01:15:05;;;;;;;;;;;;;;;16.01;65.02;101191.19;5012093;28;1323;-63
2021/03/25 01:17:30;;;;;;;;;;;;;;;15.99;65.32;101191.28;5014133;28;1510;-63
2021/03/25 01:19:55;;;;;;;;;;;;;;;15.99;64.36;101201.09;5008611;28;1544;-63
2021/03/25 01:22:21;;;;;;;;;;;;;;;15.99;64.38;101196.63;5011092;28;1375;-63
2021/03/25 01:24:46;;;;;;;;;;;;;;;15.95;64.50;101192.47;5013780;28;1374;-58
2021/03/25 01:27:12;;;;;;;;;;;;;;;15.97;65.43;101187.03;5012802;28;1180;-63
2021/03/25 01:29:37;;;;;;;;;;;;;;;15.95;64.88;101196.94;5013813;28;1918;-63
2021/03/25 01:32:03;;;;;;;;;;;;;;;15.96;64.85;101196.00;5010870;28;1276;-58
2021/03/25 01:34:28;;;;;;;;;;;;;;;15.95;64.67;101196.94;5013598;28;1572;-63
2021/03/25 01:36:53;;;;;;;;;;;;;;;15.93;64.30;101213.03;5014873;28;1612;-63
2021/03/25 01:39:19;;;;;;;;;;;;;;;15.91;65.24;101202.47;5012831;28;1358;-58
2021/03/25 01:41:44;;;;;;;;;;;;;;;15.91;64.34;101202.47;5015077;28;1454;-58
2021/03/25 01:44:28;;;;;;;;;;;;;;;15.93;64.43;101193.53;5007612;28;1447;-58
2021/03/25 01:46:54;;;;;;;;;;;;;;;15.91;64.26;101202.47;5011802;28;1377;-58
2021/03/25 01:49:19;;;;;;;;;;;;;;;15.90;65.69;101200.78;5013572;28;1953;-58
2021/03/25 01:51:44;;;;;;;;;;;;;;;15.93;65.06;101196.19;5011980;28;1413;-59
2021/03/25 01:54:45;;;;;;;;;;;;;;;15.94;64.95;101205.94;5012165;28;1529;-63
2021/03/25 01:57:17;;;;;;;;;;;;;;;15.93;64.87;101198.88;4975419;28;1452;-63
2021/03/25 01:59:42;;;;;;;;;;;;;;;15.94;65.43;101205.94;5007036;28;1715;-58
2021/03/25 02:02:16;;;;;;;;;;;;;;;15.94;64.38;101204.09;5012835;28;1537;-63
2021/03/25 02:05:04;;;;;;;;;;;;;;;15.91;65.02;101199.81;5012048;28;1509;-64
2021/03/25 02:07:38;;;;;;;;;;;;;;;15.94;65.24;101219.25;5011553;28;1492;-58
2021/03/25 02:10:33;;;;;;;;;;;;;;;15.97;64.61;101216.38;5010237;28;1901;-59
2021/03/25 02:13:02;;;;;;;;;;;;;;;15.92;64.25;101214.03;5003913;28;1531;-59
2021/03/25 02:15:45;;;;;;;;;;;;;;;15.91;65.59;101218.47;5014725;28;1328;-59
2021/03/25 02:18:26;;;;;;;;;;;;;;;15.90;65.16;101219.44;5012654;28;1250;-59
2021/03/25 02:21:10;;;;;;;;;;;;;;;15.87;64.40;101222.31;5009776;28;1338;-59
2021/03/25 02:23:56;;;;;;;;;;;;;;;15.83;64.69;101218.16;5012366;28;1631;-59
2021/03/25 02:26:34;;;;;;;;;;;;;;;15.83;65.79;101230.63;5012989;28;1391;-64
2021/03/25 02:29:03;;;;;;;;;;;;;;;15.83;64.80;101225.31;5011508;28;1979;-64
2021/03/25 02:31:32;;;;;;;;;;;;;;;15.82;64.66;101221.78;5010348;28;1402;-59
2021/03/25 02:33:59;;;;;;;;;;;;;;;15.84;65.07;101237.69;5012160;28;1342;-59
2021/03/25 02:36:31;;;;;;;;;;;;;;;15.82;65.74;101227.13;5010895;28;1584;-59
2021/03/25 02:38:59;;;;;;;;;;;;;;;15.77;65.02;101231.91;5029766;28;1343;-64
2021/03/25 02:41:27;;;;;;;;;;;;;;;15.77;65.81;101236.38;5014265;28;1324;-59
2021/03/25 02:44:04;;;;;;;;;;;;;;;15.77;64.87;101231.06;5012179;28;1686;-64
2021/03/25 02:46:36;;;;;;;;;;;;;;;15.79;65.94;101245.97;5011885;28;1643;-59
2021/03/25 02:49:03;;;;;;;;;;;;;;;15.76;65.36;101234.69;5006948;28;1945;-59
2021/03/25 02:51:28;;;;;;;;;;;;;;;15.80;65.68;101234.38;5019113;28;1557;-59
2021/03/25 02:53:54;;;;;;;;;;;;;;;15.76;64.76;101238.22;5012248;28;1452;-64
2021/03/25 02:56:25;;;;;;;;;;;;;;;15.75;65.23;101244.47;5011213;28;1140;-64
2021/03/25 02:59:00;;;;;;;;;;;;;;;15.77;64.89;101247.91;5007452;28;1387;-64
2021/03/25 03:01:35;;;;;;;;;;;;;;;15.74;65.62;101242.78;5020817;23;1990;-43
2021/03/25 03:04:02;;;;;;;;;;;;;;;15.75;64.73;101238.31;5005559;28;1815;-45
2021/03/25 03:06:33;;;;;;;;;;;;;;;15.77;65.50;101241.72;5010178;28;1645;-46
2021/03/25 03:09:01;;;;;;;;;;;;;;;15.79;64.50;101253.97;5001668;28;1981;-45
2021/03/25 03:11:29;;;;;;;;;;;;;;;15.76;65.60;101245.34;5032363;23;3634;-64
2021/03/25 03:14:00;;;;;;;;;;;;;;;15.76;64.42;101242.69;5026630;28;1378;-63
2021/03/25 03:16:29;;;;;;;;;;;;;;;15.76;64.51;101256.88;5027524;28;1454;-63
2021/03/25 03:19:05;;;;;;;;;;;;;;;15.76;64.47;101256.03;5031279;28;1482;-60
2021/03/25 03:21:35;;;;;;;;;;;;;;;15.80;64.91;101263.72;5023086;28;1370;-59
2021/03/25 03:24:00;;;;;;;;;;;;;;;15.75;64.69;101256.97;5024076;28;1587;-64
2021/03/25 03:26:31;;;;;;;;;;;;;;;15.75;64.52;101268.47;5032779;28;1291;-59
2021/03/25 03:29:03;;;;;;;;;;;;;;;15.74;64.63;101263.25;5029339;28;1522;-59
2021/03/25 03:31:34;;;;;;;;;;;;;;;15.76;64.84;101272.03;5023168;28;1537;-59
2021/03/25 03:34:02;;;;;;;;;;;;;;;15.70;65.82;101267.91;5028435;28;1398;-59
2021/03/25 03:36:28;;;;;;;;;;;;;;;15.66;65.49;101271.75;5028185;28;1561;-64
2021/03/25 03:38:53;;;;;;;;;;;;;;;15.69;64.57;101283.03;5028853;28;1529;-59
2021/03/25 03:41:22;;;;;;;;;;;;;;;15.68;65.17;101269.81;5023827;28;1169;-59
2021/03/25 03:43:48;;;;;;;;;;;;;;;15.65;65.96;101272.69;5028027;28;1398;-59
2021/03/25 03:46:18;;;;;;;;;;;;;;;15.68;65.96;101280.50;5025404;28;1450;-59
2021/03/25 03:48:50;;;;;;;;;;;;;;;15.67;65.46;101276.09;5029609;28;1536;-64
2021/03/25 03:51:22;;;;;;;;;;;;;;;15.67;65.44;101281.44;5029238;28;1906;-59
2021/03/25 03:53:47;;;;;;;;;;;;;;;15.66;64.83;101293.06;5030752;28;1398;-63
2021/03/25 03:56:24;;;;;;;;;;;;;;;15.66;64.67;101277.06;5030920;28;1315;-64
2021/03/25 03:58:57;;;;;;;;;;;;;;;15.64;64.77;101279.00;5022219;28;1418;-59
2021/03/25 04:01:23;;;;;;;;;;;;;;;15.62;64.89;101288.91;5006704;28;1569;-63
2021/03/25 04:03:49;;;;;;;;;;;;;;;15.61;65.82;101296.00;5021367;28;1457;-64
2021/03/25 04:06:22;;;;;;;;;;;;;;;15.63;64.78;101295.91;5024971;28;1295;-59
2021/03/25 04:08:54;;;;;;;;;;;;;;;15.63;64.94;101294.09;5027960;28;1394;-66
2021/03/25 04:11:29;;;;;;;;;;;;;;;15.84;65.44;101291.88;5030141;28;1956;-64
2021/03/25 04:13:58;;;;;;;;;;;;;;;15.73;64.84;101285.53;5025015;28;1402;-58
2021/03/25 04:16:24;;;;;;;;;;;;;;;15.77;66.02;101295.91;5026715;28;1457;-61
2021/03/25 04:18:50;;;;;;;;;;;;;;;15.80;66.22;101286.84;5030787;28;1425;-61
2021/03/25 04:21:25;;;;;;;;;;;;;;;15.86;66.38;101294.44;5026864;28;1294;-61
2021/03/25 04:23:52;;;;;;;;;;;;;;;15.83;65.97;101294.63;5022935;28;1353;-64
2021/03/25 04:26:25;;;;;;;;;;;;;;;15.89;65.95;101310.22;5030983;28;1417;-59
2021/03/25 04:29:05;;;;;;;;;;;;;;;15.87;66.92;101309.47;5020431;28;1398;-59
2021/03/25 04:31:30;;;;;;;;;;;;;;;15.84;66.80;101301.69;5021487;28;1558;-65
2021/03/25 04:33:56;;;;;;;;;;;;;;;15.81;66.88;101305.41;5028555;28;1413;-65
2021/03/25 04:36:25;;;;;;;;;;;;;;;15.76;65.59;101299.53;5029898;28;1362;-59
2021/03/25 04:38:50;;;;;;;;;;;;;;;15.74;65.35;101306.78;5029035;28;1310;-65
2021/03/25 04:41:16;;;;;;;;;;;;;;;15.73;66.41;101299.72;5031380;28;1545;-64
2021/03/25 04:43:43;;;;;;;;;;;;;;;15.70;66.39;101308.75;5028331;28;1453;-59
2021/03/25 04:46:14;;;;;;;;;;;;;;;15.72;65.59;101303.31;5021453;28;1322;-58
2021/03/25 04:48:41;;;;;;;;;;;;;;;15.69;65.98;101316.84;5027191;28;1413;-59
2021/03/25 04:51:17;;;;;;;;;;;;;;;15.68;65.23;101320.50;5032825;28;1961;-59
2021/03/25 04:53:43;;;;;;;;;;;;;;;15.65;65.38;101313.53;5034632;28;1342;-59
2021/03/25 04:56:13;;;;;;;;;;;;;;;15.66;65.31;101322.41;5029604;28;1275;-59
2021/03/25 04:58:42;;;;;;;;;;;;;;;15.66;65.30;101330.41;5031934;28;1643;-65
2021/03/25 05:01:16;;;;;;;;;;;;;;;15.63;65.24;101326.09;5030132;28;1507;-59
2021/03/25 05:03:42;;;;;;;;;;;;;;;15.62;66.57;101334.22;5030861;28;1370;-59
2021/03/25 05:06:15;;;;;;;;;;;;;;;15.61;66.44;101336.00;5032097;28;1581;-59
2021/03/25 05:08:41;;;;;;;;;;;;;;;15.60;65.57;101342.31;5031663;28;1644;-65
2021/03/25 05:11:09;;;;;;;;;;;;;;;15.60;66.47;101336.13;5032219;28;1901;-59
2021/03/25 05:13:35;;;;;;;;;;;;;;;15.60;65.52;101346.78;5036727;28;1517;-65
2021/03/25 05:16:16;;;;;;;;;;;;;;;15.61;66.19;101353.81;5033617;28;1357;-65
2021/03/25 05:18:47;;;;;;;;;;;;;;;15.58;65.21;101338.00;5032577;28;1393;-59
2021/03/25 05:21:16;;;;;;;;;;;;;;;15.56;65.62;101350.59;5022910;28;1330;-65
2021/03/25 05:24:02;;;;;;;;;;;;;;;15.57;65.89;101344.31;5032464;28;1302;-65
2021/03/25 05:26:40;;;;;;;;;;;;;;;15.56;65.17;101355.91;5033883;28;1345;-64
2021/03/25 05:29:06;;;;;;;;;;;;;;;15.56;65.41;101355.91;5031785;28;1973;-65
2021/03/25 05:31:32;;;;;;;;;;;;;;;15.53;65.81;101351.66;5025892;28;1532;-65
2021/03/25 05:34:02;;;;;;;;;;;;;;;15.52;65.97;101361.47;5025593;28;1512;-65
2021/03/25 05:36:28;;;;;;;;;;;;;;;15.54;65.67;101357.81;5029732;28;1536;-65
2021/03/25 05:38:54;;;;;;;;;;;;;;;15.54;65.02;101360.50;5032595;28;1351;-59
2021/03/25 05:41:38;;;;;;;;;;;;;;;15.57;65.10;101373.63;5032694;28;1417;-59
2021/03/25 05:44:22;;;;;;;;;;;;;;;15.54;65.12;101368.47;5028004;28;1595;-59
2021/03/25 05:46:53;;;;;;;;;;;;;;;15.58;64.94;101364.66;5031659;28;1509;-59
2021/03/25 05:49:23;;;;;;;;;;;;;;;15.54;65.21;101365.81;5029191;28;1957;-59
2021/03/25 05:52:03;;;;;;;;;;;;;;;15.53;64.89;101372.97;5026339;28;1394;-59
2021/03/25 05:54:43;;;;;;;;;;;;;;;15.59;65.82;101377.06;5030520;28;1520;-65
2021/03/25 05:57:24;;;;;;;;;;;;;;;15.57;65.45;101381.63;5028261;28;1322;-59
2021/03/25 05:59:58;;;;;;;;;;;;;;;15.56;64.80;101391.44;5031189;28;1731;-59
2021/03/25 06:02:36;;;;;;;;;;;;;;;15.54;64.78;101388.03;5022141;28;1522;-59
2021/03/25 06:05:02;;;;;;;;;;;;;;;15.56;65.66;101386.13;5030758;28;1310;-59
2021/03/25 06:07:43;;;;;;;;;;;;;;;15.57;65.69;101400.28;5026205;28;1683;-64
2021/03/25 06:10:15;;;;;;;;;;;;;;;15.54;64.58;101400.47;5021641;28;1910;-59
2021/03/25 06:12:55;;;;;;;;;;;;;;;15.50;64.56;101391.84;5031396;28;1512;-65
2021/03/25 06:15:38;;;;;;;;;;;;;;;15.52;64.88;101397.94;5031630;28;1217;-65
2021/03/25 06:18:23;;;;;;;;;;;;;;;15.50;65.51;101410.50;5032146;28;1468;-65
2021/03/25 06:21:11;;;;;;;;;;;;;;;15.50;64.83;101406.00;5031375;28;1398;-65
2021/03/25 06:23:36;;;;;;;;;;;;;;;15.50;66.13;101405.16;5031737;28;1524;-59
2021/03/25 06:26:07;;;;;;;;;;;;;;;15.54;64.93;101413.81;5034867;28;961;-64
2021/03/25 06:28:39;;;;;;;;;;;;;;;15.52;64.99;101430.75;5028297;28;1403;-59
2021/03/25 06:31:07;;;;;;;;;;;;;;;15.53;65.44;101420.94;5022658;28;1918;-59
2021/03/25 06:33:35;;;;;;;;;;;;;;;15.53;64.81;101428.94;5021461;28;1600;-64
2021/03/25 06:36:06;;;;;;;;;;;;;;;15.55;65.59;101415.53;5023865;28;1322;-58
2021/03/25 06:38:43;;;;;;;;;;;;;;;15.62;65.88;101431.03;5026233;28;1387;-59
2021/03/25 06:41:11;;;;;;;;;;;;;;;15.67;66.40;101436.91;5029105;28;1342;-59
2021/03/25 06:43:42;;;;;;;;;;;;;;;15.69;66.04;101442.16;5031295;28;1437;-58
2021/03/25 06:46:17;;;;;;;;;;;;;;;15.75;65.63;101425.81;5022558;28;1586;-59
2021/03/25 06:48:44;;;;;;;;;;;;;;;15.80;65.57;101433.53;5024037;28;1426;-59
2021/03/25 06:51:21;;;;;;;;;;;;;;;15.88;65.50;101426.75;5028172;28;1977;-59
2021/03/25 06:53:51;;;;;;;;;;;;;;;15.98;65.52;101442.16;5026071;28;1362;-62
2021/03/25 06:56:40;;;;;;;;;;;;;;;16.01;65.93;101441.94;5026687;28;1354;-59
2021/03/25 06:59:10;;;;;;;;;;;;;;;16.07;65.67;101441.53;5027264;28;1453;-66
2021/03/25 07:01:38;;;;;;;;;;;;;;;16.22;65.25;101435.22;5027082;28;1492;-66
2021/03/25 07:04:06;;;;;;;;;;;;;;;16.33;65.30;101447.00;5029778;28;1580;-66
2021/03/25 07:06:33;;;;;;;;;;;;;;;16.45;64.73;101443.50;5020983;28;1438;-66
2021/03/25 07:08:59;;;;;;;;;;;;;;;16.53;64.71;101446.50;5029060;28;1322;-66
2021/03/25 07:11:26;;;;;;;;;;;;;;;16.56;63.77;101446.31;5031073;28;1922;-66
2021/03/25 07:14:00;;;;;;;;;;;;;;;16.58;63.64;101447.06;5031313;28;1517;-66
2021/03/25 07:16:27;;;;;;;;;;;;;;;16.67;64.01;101459.81;5030869;28;1381;-66
2021/03/25 07:18:52;;;;;;;;;;;;;;;16.82;63.84;101471.28;5030700;28;1410;-66
2021/03/25 07:21:25;;;;;;;;;;;;;;;16.85;63.66;101462.19;5029743;28;1249;-66
2021/03/25 07:23:52;;;;;;;;;;;;;;;16.95;63.01;101471.34;5023457;28;1593;-66
2021/03/25 07:26:29;;;;;;;;;;;;;;;16.97;65.00;101468.53;5030254;28;1370;-59
2021/03/25 07:29:06;;;;;;;;;;;;;;;17.00;64.97;101469.19;5027318;28;1306;-66
2021/03/25 07:31:34;;;;;;;;;;;;;;;17.07;63.75;101470.47;5023564;28;1971;-59
2021/03/25 07:34:00;;;;;;;;;;;;;;;17.15;64.77;101477.97;5041939;28;1377;-66
2021/03/25 07:36:26;;;;;;;;;;;;;;;17.16;65.04;101468.13;5024875;28;1665;-66
2021/03/25 07:38:59;;;;;;;;;;;;;;;17.27;64.04;101484.28;5030401;28;1491;-59
2021/03/25 07:41:29;;;;;;;;;;;;;;;17.55;63.35;101476.97;5028468;28;1433;-58
2021/03/25 07:44:05;;;;;;;;;;;;;;;17.51;64.09;101476.38;5043985;28;1429;-56
2021/03/25 07:46:43;;;;;;;;;;;;;;;17.52;62.42;101479.88;5027628;28;1340;-56
2021/03/25 07:49:12;;;;;;;;;;;;;;;17.50;61.08;101488.00;5031061;28;1949;-57
2021/03/25 07:51:41;;;;;;;;;;;;;;;17.59;61.72;101489.19;5024126;28;1571;-57
2021/03/25 07:54:11;;;;;;;;;;;;;;;17.49;60.64;101497.84;5030295;28;1373;-56
2021/03/25 07:56:36;;;;;;;;;;;;;;;17.56;60.76;101482.22;5032408;28;1548;-61
2021/03/25 07:59:02;;;;;;;;;;;;;;;17.48;59.96;101493.47;5027808;28;1307;-58
2021/03/25 08:01:27;;;;;;;;;;;;;;;17.47;60.13;101485.56;5031046;28;1579;-58
2021/03/25 08:03:54;;;;;;;;;;;;;;;17.58;59.09;101490.16;5029863;28;1347;-56
2021/03/25 08:06:38;;;;;;;;;;;;;;;17.55;59.60;101495.69;5028706;28;1480;-58
2021/03/25 08:09:06;;;;;;;;;;;;;;;17.50;60.41;101491.53;5029376;28;1535;-56
2021/03/25 08:11:32;;;;;;;;;;;;;;;17.52;60.39;101495.94;5028385;28;1894;-56
2021/03/25 08:14:00;;;;;;;;;;;;;;;17.52;59.09;101485.22;5029740;28;1237;-57
2021/03/25 08:16:28;;;;;;;;;;;;;;;17.60;58.59;101498.91;5029785;28;1563;-61
2021/03/25 08:18:53;;;;;;;;;;;;;;;17.69;57.37;101480.41;5028226;28;1476;-58
2021/03/25 08:21:37;;;;;;;;;;;;;;;17.75;58.75;101491.63;5020509;28;1690;-57
2021/03/25 08:24:04;;;;;;;;;;;;;;;17.82;58.95;101482.19;5029119;28;1510;-57
2021/03/25 08:26:48;;;;;;;;;;;;;;;17.89;59.78;101479.00;5031862;28;1214;-58
2021/03/25 08:32:16;;;;;;;;;;;;;;;17.88;59.22;101476.41;5021161;28;1339;-56
2021/03/25 08:34:41;;;;;;;;;;;;;;;17.88;59.58;101466.56;5016419;28;1407;-59
2021/03/25 08:37:11;;;;;;;;;;;;;;;17.90;59.55;101463.78;5027605;28;1718;-58
2021/03/25 08:39:42;;;;;;;;;;;;;;;17.89;60.19;101462.09;5021125;28;1376;-58
2021/03/25 08:42:26;;;;;;;;;;;;;;;17.94;59.74;101470.63;5029377;28;1488;-59
2021/03/25 08:45:07;;;;;;;;;;;;;;;17.91;59.55;101465.50;5027397;28;1326;-58
2021/03/25 08:47:46;;;;;;;;;;;;;;;17.85;60.45;101466.81;5028923;28;1730;-58
2021/03/25 08:50:20;;;;;;;;;;;;;;;17.83;60.47;101459.84;5027942;28;1890;-58
2021/03/25 08:52:46;;;;;;;;;;;;;;;17.85;60.98;101468.63;5027846;28;1554;-60
2021/03/25 08:55:32;;;;;;;;;;;;;;;17.85;61.31;101461.47;5022824;28;1520;-57
2021/03/25 08:58:18;;;;;;;;;;;;;;;17.80;61.02;101463.56;5029765;28;1506;-58
2021/03/25 09:00:45;;;;;;;;;;;;;;;17.83;60.81;101447.34;5022414;28;1626;-58
2021/03/25 09:03:11;;;;;;;;;;;;;;;17.83;61.41;101452.69;5025611;28;1344;-59
2021/03/25 09:05:39;;;;;;;;;;;;;;;17.79;60.71;101461.88;5029594;28;1439;-59
2021/03/25 09:08:09;;;;;;;;;;;;;;;17.80;61.48;101468.06;5027199;28;1203;-59
2021/03/25 09:10:39;;;;;;;;;;;;;;;17.78;61.70;101457.47;5020999;28;1957;-58
2021/03/25 09:13:07;;;;;;;;;;;;;;;17.71;61.00;101461.56;5027912;28;1399;-58
2021/03/25 09:15:33;;;;;;;;;;;;;;;17.71;62.25;101464.25;5025978;28;1328;-56
2021/03/25 09:18:03;;;;;;;;;;;;;;;17.76;61.75;101472.78;5030911;28;1484;-59
2021/03/25 09:20:34;;;;;;;;;;;;;;;17.74;61.96;101458.66;5028852;28;1199;-58
2021/03/25 09:23:19;;;;;;;;;;;;;;;17.67;61.98;101466.28;5032199;28;1614;-59
2021/03/25 09:25:45;;;;;;;;;;;;;;;17.68;61.99;101469.78;5022100;28;1337;-59
2021/03/25 09:28:17;;;;;;;;;;;;;;;17.65;62.33;101456.66;5024030;28;1630;-59
2021/03/25 09:31:01;;;;;;;;;;;;;;;17.66;61.79;101455.69;5030093;28;1907;-60
2021/03/25 09:33:45;;;;;;;;;;;;;;;17.66;62.19;101458.34;5026627;28;1736;-56
2021/03/25 09:36:16;;;;;;;;;;;;;;;17.68;61.51;101462.63;5030701;28;1179;-58
2021/03/25 09:38:42;;;;;;;;;;;;;;;17.70;62.73;101465.19;5029044;28;1434;-58
2021/03/25 09:41:15;;;;;;;;;;;;;;;17.68;62.22;101454.59;5032269;28;1537;-57
2021/03/25 09:43:42;;;;;;;;;;;;;;;17.70;62.75;101438.44;5029219;28;1441;-59
2021/03/25 09:46:20;;;;;;;;;;;;;;;17.68;62.61;101448.41;5024203;28;1599;-58
2021/03/25 09:48:45;;;;;;;;;;;;;;;17.69;62.82;101447.44;5030517;28;1358;-58
2021/03/25 09:51:17;;;;;;;;;;;;;;;17.72;62.45;101449.88;5022888;28;1886;-58
2021/03/25 09:53:45;;;;;;;;;;;;;;;17.73;61.96;101440.06;5027447;28;1503;-58
2021/03/25 09:56:29;;;;;;;;;;;;;;;17.77;61.92;101450.44;5028767;28;702;-58
2021/03/25 09:58:55;;;;;;;;;;;;;;;17.83;62.44;101431.28;5024363;28;1470;-58
2021/03/25 10:01:39;;;;;;;;;;;;;;;17.86;61.48;101449.78;5031413;28;1520;-58
2021/03/25 10:04:32;;;;;;;;;;;;;;;17.93;61.37;101430.63;5028572;28;1678;-59
2021/03/25 10:07:09;;;;;;;;;;;;;;;18.05;61.14;101424.38;5027470;28;1673;-57
2021/03/25 10:09:47;;;;;;;;;;;;;;;18.02;62.09;101432.59;5025951;28;1894;-57
2021/03/25 10:12:13;;;;;;;;;;;;;;;17.97;62.41;101434.78;5031727;28;1383;-57
2021/03/25 10:14:52;;;;;;;;;;;;;;;17.91;61.62;101422.69;5023549;28;1702;-57
2021/03/25 10:17:36;;;;;;;;;;;;;;;17.92;61.65;101428.91;5030098;28;1496;-57
2021/03/25 10:20:01;;;;;;;;;;;;;;;17.93;62.51;101430.63;5028717;28;1601;-57
2021/03/25 10:22:26;;;;;;;;;;;;;;;17.87;62.02;101432.75;5028589;28;1710;-57
2021/03/25 10:24:56;;;;;;;;;;;;;;;17.88;62.79;101433.63;5026570;28;1564;-57
2021/03/25 10:27:27;;;;;;;;;;;;;;;17.88;62.57;101428.25;5031149;28;1232;-59
2021/03/25 10:29:52;;;;;;;;;;;;;;;17.98;61.95;101423.09;5027919;28;1977;-60
2021/03/25 10:32:23;;;;;;;;;;;;;;;17.96;62.24;101420.53;5032572;28;1587;-58
2021/03/25 10:34:52;;;;;;;;;;;;;;;17.99;61.93;101430.16;5027288;28;1317;-57
2021/03/25 10:37:36;;;;;;;;;;;;;;;18.04;61.76;101434.19;5023490;28;1409;-59
2021/03/25 10:40:15;;;;;;;;;;;;;;;17.19;62.44;101430.47;5030746;28;1358;-59
2021/03/25 10:42:41;;;;;;;;;;;;;;;17.53;62.11;101428.09;5033125;28;1296;-68
2021/03/25 10:45:13;;;;;;;;;;;;;;;17.63;62.45;101418.47;5033207;28;1261;-61
2021/03/25 10:47:38;;;;;;;;;;;;;;;17.64;62.86;101420.16;5022264;28;1457;-59
2021/03/25 10:50:05;;;;;;;;;;;;;;;17.68;62.59;101427.00;5028097;28;1952;-59
2021/03/25 10:52:40;;;;;;;;;;;;;;;17.68;62.13;101435.03;5030770;28;1518;-62
2021/03/25 10:55:21;;;;;;;;;;;;;;;17.74;61.49;101431.06;5026526;28;1417;-63
2021/03/25 10:57:48;;;;;;;;;;;;;;;17.69;62.00;101431.41;5025369;28;1220;-63
2021/03/25 11:00:14;;;;;;;;;;;;;;;17.66;62.10;101437.81;5023467;28;1318;-62
2021/03/25 11:02:41;;;;;;;;;;;;;;;17.67;63.03;101428.84;5025552;28;1553;-68
2021/03/25 11:05:17;;;;;;;;;;;;;;;17.52;62.23;101431.75;5030694;28;1374;-67
2021/03/25 11:07:44;;;;;;;;;;;;;;;17.67;62.73;101419.97;5028471;28;1411;-61
2021/03/25 11:10:21;;;;;;;;;;;;;;;17.66;61.70;101439.63;5023129;28;1898;-63
2021/03/25 11:12:47;;;;;;;;;;;;;;;17.63;61.58;101430.03;4985060;28;1460;-65
2021/03/25 11:15:42;;;;;;;;;;;;;;;17.61;60.59;101429.28;4988754;28;1440;-62
2021/03/25 11:18:22;;;;;;;;;;;;;;;17.62;59.80;101432.78;4980637;28;1399;-65
2021/03/25 11:20:48;;;;;;;;;;;;;;;17.60;60.24;101416.00;4987678;28;1266;-66
2021/03/25 11:23:18;;;;;;;;;;;;;;;17.64;59.45;101420.16;4991030;28;1210;-63
2021/03/25 11:25:44;;;;;;;;;;;;;;;17.67;60.16;101415.47;4983469;28;1542;-71
2021/03/25 11:28:17;;;;;;;;;;;;;;;17.68;59.01;101406.44;4990946;28;1672;-64
2021/03/25 11:30:45;;;;;;;;;;;;;;;17.62;59.54;101401.56;4991717;28;1981;-67
2021/03/25 11:33:29;;;;;;;;;;;;;;;17.64;60.27;101410.31;4991441;28;1598;-65
2021/03/25 11:35:58;;;;;;;;;;;;;;;17.67;61.13;101414.59;4985489;28;1487;-63
2021/03/25 11:38:24;;;;;;;;;;;;;;;17.76;60.84;101402.38;4989690;28;1563;-60
2021/03/25 11:40:49;;;;;;;;;;;;;;;17.76;59.97;101394.34;4984143;28;1458;-60
2021/03/25 11:43:19;;;;;;;;;;;;;;;17.78;59.92;101401.28;5002904;28;1579;-65
2021/03/25 11:45:51;;;;;;;;;;;;;;;17.92;59.97;101411.00;4989313;28;1549;-65
2021/03/25 11:48:24;;;;;;;;;;;;;;;17.94;60.74;101402.88;4989673;28;1780;-62
2021/03/25 11:50:50;;;;;;;;;;;;;;;17.89;60.75;101398.72;4989696;28;1961;-62
2021/03/25 11:53:35;;;;;;;;;;;;;;;17.88;61.15;101405.03;4989541;28;1346;-61
2021/03/25 11:56:01;;;;;;;;;;;;;;;17.84;60.67;101400.03;4992253;28;1521;-61
2021/03/25 11:58:27;;;;;;;;;;;;;;;17.83;60.79;101392.94;4987299;28;1494;-61
2021/03/25 12:01:03;;;;;;;;;;;;;;;17.81;61.01;101393.06;4984840;28;1408;-61
2021/03/25 12:03:31;;;;;;;;;;;;;;;17.78;61.77;101398.63;4991276;28;1479;-62
2021/03/25 12:05:57;;;;;;;;;;;;;;;17.77;61.20;101396.06;4986297;28;1457;-62
2021/03/25 12:08:32;;;;;;;;;;;;;;;17.80;60.58;101399.34;5003139;28;1464;-62
2021/03/25 12:10:59;;;;;;;;;;;;;;;17.84;60.72;101394.69;5003302;28;1963;-70
2021/03/25 12:13:24;;;;;;;;;;;;;;;17.82;61.04;101397.41;5031656;28;1603;-60
2021/03/25 12:15:50;;;;;;;;;;;;;;;17.81;61.08;101390.38;5031538;28;1614;-71
2021/03/25 12:18:37;;;;;;;;;;;;;;;17.80;61.30;101394.00;5028970;28;1388;-71
2021/03/25 12:21:06;;;;;;;;;;;;;;;17.76;61.20;101384.50;5024632;28;1542;-70
2021/03/25 12:23:32;;;;;;;;;;;;;;;17.82;61.51;101386.72;5032934;28;1377;-61
2021/03/25 12:26:00;;;;;;;;;;;;;;;17.79;61.17;101389.63;5039694;28;1286;-71
2021/03/25 12:28:26;;;;;;;;;;;;;;;17.81;61.07;101390.38;5029928;28;1625;-61
2021/03/25 12:30:51;;;;;;;;;;;;;;;17.80;60.72;101377.94;5030548;28;1977;-71
2021/03/25 12:33:18;;;;;;;;;;;;;;;17.82;61.42;101381.38;5030739;28;1704;-61
2021/03/25 12:35:44;;;;;;;;;;;;;;;17.84;60.98;101392.00;5031076;28;1327;-73
2021/03/25 12:38:10;;;;;;;;;;;;;;;17.78;61.67;101371.84;5031353;28;1382;-62
2021/03/25 12:40:35;;;;;;;;;;;;;;;17.80;60.94;101382.47;5031653;28;1605;-71
2021/03/25 12:43:00;;;;;;;;;;;;;;;17.79;60.93;101386.97;5031123;28;1520;-71
2021/03/25 12:45:32;;;;;;;;;;;;;;;17.74;61.53;101386.44;5030632;28;1396;-72
2021/03/25 12:47:57;;;;;;;;;;;;;;;17.74;61.07;101380.22;5023422;28;1600;-61
2021/03/25 12:50:23;;;;;;;;;;;;;;;17.74;61.78;101375.72;5037930;28;1898;-61
2021/03/25 12:52:48;;;;;;;;;;;;;;;17.77;61.12;101383.53;5027351;28;1738;-71
2021/03/25 12:55:14;;;;;;;;;;;;;;;17.82;60.73;101380.53;5019908;28;1731;-61
2021/03/25 12:57:39;;;;;;;;;;;;;;;17.78;61.50;101368.34;5030582;28;1346;-61
2021/03/25 13:00:09;;;;;;;;;;;;;;;17.80;61.20;101377.94;5032170;28;950;-71
2021/03/25 13:02:35;;;;;;;;;;;;;;;17.83;61.18;101384.91;5045377;28;1612;-71
2021/03/25 13:05:00;;;;;;;;;;;;;;;17.80;60.77;101371.75;5039001;28;1606;-61
2021/03/25 13:07:25;;;;;;;;;;;;;;;17.79;61.24;101370.06;5036969;28;1366;-61
2021/03/25 13:09:53;;;;;;;;;;;;;;;17.81;61.29;101384.19;5028684;28;1959;-72